createdAt,value
2023-02-24T00:03:00.348Z,65890.63
2023-02-24T00:08:06.324Z,65926.47
2023-02-24T00:13:12.275Z,65881.09
2023-02-24T00:18:16.886Z,65872.63
2023-02-24T00:23:23.825Z,65907.66
2023-02-24T00:28:29.723Z,65904.53
2023-02-24T00:33:34.309Z,65882.16
2023-02-24T00:38:46.100Z,65936.09
2023-02-24T00:43:51.755Z,65861.84
2023-02-24T00:48:56.253Z,65885.91
2023-02-24T00:54:02.773Z,65869.22
2023-02-24T00:59:07.109Z,65869.97
2023-02-24T01:04:12.290Z,65881.00
2023-02-24T01:09:20.323Z,65872.00
2023-02-24T01:14:27.243Z,65844.72
2023-02-24T01:19:34.185Z,65884.75
2023-02-24T01:24:42.435Z,65887.41
2023-02-24T01:29:47.102Z,65844.09
2023-02-24T01:34:53.581Z,65881.53
2023-02-24T01:39:59.519Z,65908.72
2023-02-24T01:45:12.745Z,65884.47
2023-02-24T01:50:21.841Z,65941.44
2023-02-24T01:55:32.204Z,65901.94
2023-02-24T02:00:45.376Z,65861.94
2023-02-24T02:05:49.841Z,65869.97
2023-02-24T02:10:59.761Z,65928.59
2023-02-24T02:16:30.896Z,65961.75
2023-02-24T02:22:02.466Z,65940.56
2023-02-24T02:27:58.227Z,65901.94
2023-02-24T02:33:38.605Z,65896.59
2023-02-24T02:38:54.244Z,65915.84
2023-02-24T02:44:09.104Z,65880.44
2023-02-24T02:49:22.106Z,65881.97
2023-02-24T02:54:34.857Z,65883.69
2023-02-24T02:59:49.450Z,65944.63
2023-02-24T03:04:58.370Z,65919.59
2023-02-24T03:10:17.822Z,65952.56
2023-02-24T03:15:24.762Z,65895.53
2023-02-24T03:20:33.036Z,65915.75
2023-02-24T03:25:44.634Z,65866.03
2023-02-24T03:30:58.070Z,65863.00
2023-02-24T03:36:02.857Z,65881.63
2023-02-24T03:41:12.066Z,65925.38
2023-02-24T03:46:18.187Z,65880.00
2023-02-24T03:51:24.517Z,65846.25
2023-02-24T03:56:46.473Z,65846.88
2023-02-24T04:01:58.206Z,65891.78
2023-02-24T04:07:16.380Z,65852.31
2023-02-24T04:12:29.397Z,65873.59
2023-02-24T04:17:43.626Z,65919.59
2023-02-24T04:22:51.679Z,65875.13
2023-02-24T04:28:00.060Z,65898.72
2023-02-24T04:33:05.072Z,65911.03
2023-02-24T04:38:09.765Z,65875.75
2023-02-24T04:43:16.566Z,65920.66
2023-02-24T04:48:20.590Z,65874.06
2023-02-24T04:53:27.246Z,65884.22
2023-02-24T04:58:33.053Z,65885.44
2023-02-24T05:03:37.957Z,65887.84
2023-02-24T05:08:42.755Z,65901.06
2023-02-24T05:13:48.811Z,65936.09
2023-02-24T05:19:13.151Z,65912.09
2023-02-24T05:24:17.669Z,65933.31
2023-02-24T05:29:23.481Z,65913.59
2023-02-24T05:34:30.628Z,65916.91
2023-02-24T05:39:35.213Z,65901.31
2023-02-24T05:44:41.926Z,65932.97
2023-02-24T05:49:48.058Z,65904.00
2023-02-24T05:54:53.605Z,65867.81
2023-02-24T05:59:59.384Z,65905.06
2023-02-24T06:05:04.513Z,65927.16
2023-02-24T06:10:11.016Z,65963.47
2023-02-24T06:15:17.737Z,65884.28
2023-02-24T06:20:22.609Z,65909.53
2023-02-24T06:25:29.894Z,65884.91
2023-02-24T06:30:35.807Z,65878.31
2023-02-24T06:35:45.042Z,65856.41
2023-02-24T06:40:52.439Z,65841.00
2023-02-24T06:46:13.419Z,65864.59
2023-02-24T06:51:18.287Z,65836.09
2023-02-24T06:56:23.446Z,65850.50
2023-02-24T07:01:30.116Z,65805.28
2023-02-24T07:06:38.507Z,65791.22
2023-02-24T07:11:46.898Z,65833.50
2023-02-24T07:16:54.799Z,65872.34
2023-02-24T07:22:03.639Z,65872.97
2023-02-24T07:27:10.240Z,65857.56
2023-02-24T07:32:18.105Z,65861.84
2023-02-24T07:37:24.424Z,65898.91
2023-02-24T07:42:35.439Z,65833.50
2023-02-24T07:47:44.696Z,65859.50
2023-02-24T07:52:49.402Z,65816.94
2023-02-24T07:57:54.869Z,65840.81
2023-02-24T08:03:00.923Z,65879.47
2023-02-24T08:08:06.617Z,65876.81
2023-02-24T08:13:12.108Z,65910.50
2023-02-24T08:18:20.157Z,65893.28
2023-02-24T08:23:25.841Z,65930.81
2023-02-24T08:28:30.381Z,65983.88
2023-02-24T08:33:37.443Z,65984.22
2023-02-24T08:38:42.399Z,65988.69
2023-02-24T08:43:48.674Z,65980.03
2023-02-24T08:48:56.495Z,65984.31
2023-02-24T08:54:02.821Z,65954.38
2023-02-24T08:59:07.767Z,65973.06
2023-02-24T09:04:19.210Z,65997.63
2023-02-24T09:09:23.809Z,65961.84
2023-02-24T09:14:30.154Z,65987.63
2023-02-24T09:19:57.082Z,66003.03
2023-02-24T09:25:21.900Z,66019.66
2023-02-24T09:30:38.663Z,65982.63
2023-02-24T09:35:46.925Z,66006.63
2023-02-24T09:40:52.202Z,65983.25
2023-02-24T09:46:14.557Z,65991.28
2023-02-24T09:51:29.266Z,65991.19
2023-02-24T09:56:42.713Z,66003.41
2023-02-24T10:02:02.414Z,65972.44
2023-02-24T10:07:16.593Z,65913.81
2023-02-24T10:12:25.508Z,65945.72
2023-02-24T10:17:40.462Z,65920.22
2023-02-24T10:22:54.278Z,65942.94
2023-02-24T10:28:07.951Z,65924.94
2023-02-24T10:33:25.554Z,65964.97
2023-02-24T10:38:34.236Z,66016.53
2023-02-24T10:43:45.781Z,66007.34
2023-02-24T10:49:00.715Z,65959.16
2023-02-24T10:54:34.185Z,66038.19
2023-02-24T11:00:20.123Z,66066.88
2023-02-24T11:05:38.621Z,65964.63
2023-02-24T11:10:58.840Z,65953.72
2023-02-24T11:16:20.996Z,65924.59
2023-02-24T11:21:28.134Z,65926.00
2023-02-24T11:26:38.392Z,65944.63
2023-02-24T11:32:12.163Z,65931.34
2023-02-24T11:37:30.927Z,66003.50
2023-02-24T11:42:45.768Z,66090.69
2023-02-24T11:47:57.497Z,66060.34
2023-02-24T11:53:06.863Z,66019.44
2023-02-24T11:58:19.018Z,65988.50
2023-02-24T12:03:32.103Z,66016.34
2023-02-24T12:08:40.734Z,66057.69
2023-02-24T12:13:53.210Z,65979.50
2023-02-24T12:19:04.512Z,65953.72
2023-02-24T12:24:13.912Z,66029.81
2023-02-24T12:29:48.718Z,66075.78
2023-02-24T12:35:07.060Z,66028.84
2023-02-24T12:40:26.726Z,66016.78
2023-02-24T12:45:44.607Z,65996.00
2023-02-24T12:50:55.574Z,65987.88
2023-02-24T12:56:11.810Z,66013.22
2023-02-24T13:01:26.346Z,66001.34
2023-02-24T13:06:41.857Z,66002.44
2023-02-24T13:11:53.068Z,66044.72
2023-02-24T13:17:20.172Z,65961.13
2023-02-24T13:22:28.505Z,66012.78
2023-02-24T13:27:36.273Z,66012.16
2023-02-24T13:32:46.463Z,65971.38
2023-02-24T13:37:51.690Z,65999.50
2023-02-24T13:43:01.599Z,66028.28
2023-02-24T13:48:33.269Z,66067.31
2023-02-24T13:53:58.957Z,66201.78
2023-02-24T13:59:29.100Z,66202.75
2023-02-24T14:04:39.436Z,66268.56
2023-02-24T14:09:47.797Z,66255.31
2023-02-24T14:14:53.090Z,66259.00
2023-02-24T14:20:10.142Z,66175.88
2023-02-24T14:25:15.830Z,66224.19
2023-02-24T14:30:27.014Z,66135.41
2023-02-24T14:35:36.581Z,66267.28
2023-02-24T14:40:49.081Z,66229.56
2023-02-24T14:45:54.974Z,66070.53
2023-02-24T14:51:02.940Z,66024.97
2023-02-24T14:56:08.826Z,66003.50
2023-02-24T15:01:20.190Z,65990.75
2023-02-24T15:06:28.481Z,65937.16
2023-02-24T15:11:37.196Z,65929.13
2023-02-24T15:16:44.214Z,65910.59
2023-02-24T15:21:50.377Z,65930.81
2023-02-24T15:26:56.357Z,65965.16
2023-02-24T15:32:02.079Z,66026.06
2023-02-24T15:37:18.529Z,66040.59
2023-02-24T15:42:28.579Z,66004.66
2023-02-24T15:47:43.221Z,65957.91
2023-02-24T15:52:49.570Z,65911.91
2023-02-24T15:57:58.914Z,65900.31
2023-02-24T16:03:03.233Z,65854.88
2023-02-24T16:08:13.084Z,65825.94
2023-02-24T16:13:20.845Z,65846.34
2023-02-24T16:18:27.388Z,65823.88
2023-02-24T16:23:38.756Z,65804.56
2023-02-24T16:28:43.697Z,65781.66
2023-02-24T16:33:54.856Z,65828.16
2023-02-24T16:39:01.848Z,65806.06
2023-02-24T16:44:06.585Z,65779.97
2023-02-24T16:49:14.945Z,65788.09
2023-02-24T16:54:22.189Z,65780.59
2023-02-24T16:59:27.799Z,65778.69
2023-02-24T17:04:32.594Z,65774.53
2023-02-24T17:09:38.829Z,65768.72
2023-02-24T17:14:42.941Z,65812.03
2023-02-24T17:19:47.514Z,65777.28
2023-02-24T17:24:56.143Z,65799.84
2023-02-24T17:30:00.996Z,65840.47
2023-02-24T17:35:05.901Z,65871.38
2023-02-24T17:40:13.891Z,65835.03
2023-02-24T17:45:18.555Z,65821.66
2023-02-24T17:50:23.131Z,65855.88
2023-02-24T17:55:29.442Z,65836.19
2023-02-24T18:00:34.307Z,65860.13
2023-02-24T18:05:39.020Z,65849.91
2023-02-24T18:10:45.006Z,65848.38
2023-02-24T18:15:49.642Z,65854.16
2023-02-24T18:20:58.744Z,65838.94
2023-02-24T18:26:06.555Z,65858.00
2023-02-24T18:31:15.627Z,65862.28
2023-02-24T18:36:21.400Z,65849.53
2023-02-24T18:41:27.698Z,65849.44
2023-02-24T18:46:32.320Z,65869.22
2023-02-24T18:51:37.197Z,65828.69
2023-02-24T18:56:43.350Z,65854.88
2023-02-24T19:01:48.974Z,65849.66
2023-02-24T19:06:53.684Z,65862.81
2023-02-24T19:12:00.032Z,65841.34
2023-02-24T19:17:04.672Z,65890.09
2023-02-24T19:22:09.141Z,65916.28
2023-02-24T19:27:15.023Z,65842.59
2023-02-24T19:32:19.251Z,65820.50
2023-02-24T19:37:23.901Z,65827.00
2023-02-24T19:42:29.790Z,65798.13
2023-02-24T19:47:34.247Z,65784.22
2023-02-24T19:52:38.898Z,65798.78
2023-02-24T19:57:44.784Z,65798.78
2023-02-24T20:02:48.865Z,65826.38
2023-02-24T20:07:53.618Z,65816.41
2023-02-24T20:12:59.583Z,65829.25
2023-02-24T20:18:07.766Z,65849.00
2023-02-24T20:23:12.235Z,65873.06
2023-02-24T20:28:21.150Z,65908.25
2023-02-24T20:33:26.582Z,65820.78
2023-02-24T20:38:31.331Z,65829.25
2023-02-24T20:43:37.330Z,65851.59
2023-02-24T20:48:43.425Z,65838.31
2023-02-24T20:53:57.319Z,65882.16
2023-02-24T20:59:07.350Z,65869.75
2023-02-24T21:04:14.110Z,65891.59
2023-02-24T21:09:18.587Z,65881.09
2023-02-24T21:14:24.938Z,65920.13
2023-02-24T21:19:30.691Z,65923.88
2023-02-24T21:24:35.209Z,65911.47
2023-02-24T21:29:41.369Z,65869.97
2023-02-24T21:34:46.050Z,65899.63
2023-02-24T21:39:50.581Z,65914.13
2023-02-24T21:45:02.529Z,65891.69
2023-02-24T21:50:08.055Z,65929.66
2023-02-24T21:55:12.680Z,65921.72
2023-02-24T22:00:20.009Z,65914.06
2023-02-24T22:05:27.030Z,65947.41
2023-02-24T22:10:31.895Z,65924.31
2023-02-24T22:15:40.211Z,65928.06
2023-02-24T22:20:44.590Z,65931.88
2023-02-24T22:25:49.223Z,65974.06
2023-02-24T22:30:58.457Z,65968.81
2023-02-24T22:36:03.793Z,65978.25
2023-02-24T22:41:10.424Z,65954.38
2023-02-24T22:46:19.187Z,66027.03
2023-02-24T22:51:24.833Z,66013.13
2023-02-24T22:56:30.887Z,65988.94
2023-02-24T23:01:37.465Z,65992.78
2023-02-24T23:06:41.845Z,65975.66
2023-02-24T23:11:47.223Z,65966.03
2023-02-24T23:16:55.711Z,66009.03
2023-02-24T23:22:00.578Z,66006.81
2023-02-24T23:27:06.294Z,65969.34
2023-02-24T23:32:12.273Z,66004.56
2023-02-24T23:37:16.934Z,66004.66
2023-02-24T23:42:21.500Z,66027.56
2023-02-24T23:47:27.388Z,66015.81
2023-02-24T23:52:31.515Z,66012.50
2023-02-24T23:57:36.024Z,66029.81
